sensor_id;sensor_type;location;lat;lon;timestamp;temperature;humidity
54700;DHT22;40599;53.132;6.090;2022-09-09T00:00:22;14.30;99.90
54700;DHT22;40599;53.132;6.090;2022-09-09T00:03:18;14.30;99.90
54700;DHT22;40599;53.132;6.090;2022-09-09T00:08:44;14.30;99.90
54700;DHT22;40599;53.132;6.090;2022-09-09T00:11:24;14.20;99.90
54700;DHT22;40599;53.132;6.090;2022-09-09T00:13:52;14.20;99.90
54700;DHT22;40599;53.132;6.090;2022-09-09T00:16:22;14.20;99.90
54700;DHT22;40599;53.132;6.090;2022-09-09T00:19:04;14.20;99.90
54700;DHT22;40599;53.132;6.090;2022-09-09T00:21:42;14.20;99.90
54700;DHT22;40599;53.132;6.090;2022-09-09T00:24:30;14.20;99.90
54700;DHT22;40599;53.132;6.090;2022-09-09T00:27:23;14.10;99.90
54700;DHT22;40599;53.132;6.090;2022-09-09T00:30:27;14.10;99.90
54700;DHT22;40599;53.132;6.090;2022-09-09T00:33:00;14.10;99.90
54700;DHT22;40599;53.132;6.090;2022-09-09T00:35:39;14.10;99.90
54700;DHT22;40599;53.132;6.090;2022-09-09T00:38:31;14.10;99.90
54700;DHT22;40599;53.132;6.090;2022-09-09T00:41:24;14.10;99.90
54700;DHT22;40599;53.132;6.090;2022-09-09T00:43:57;14.10;99.90
54700;DHT22;40599;53.132;6.090;2022-09-09T00:57:19;14.00;99.90
54700;DHT22;40599;53.132;6.090;2022-09-09T01:04:47;14.00;99.90
54700;DHT22;40599;53.132;6.090;2022-09-09T01:07:17;14.00;99.90
54700;DHT22;40599;53.132;6.090;2022-09-09T01:09:58;14.00;99.90
54700;DHT22;40599;53.132;6.090;2022-09-09T01:12:29;13.90;99.90
54700;DHT22;40599;53.132;6.090;2022-09-09T01:15:08;13.90;99.90
54700;DHT22;40599;53.132;6.090;2022-09-09T01:28:19;14.00;99.90
54700;DHT22;40599;53.132;6.090;2022-09-09T01:30:47;14.00;99.90
54700;DHT22;40599;53.132;6.090;2022-09-09T01:33:17;14.00;99.90
54700;DHT22;40599;53.132;6.090;2022-09-09T01:38:29;14.00;99.90
54700;DHT22;40599;53.132;6.090;2022-09-09T01:40:56;14.10;99.90
54700;DHT22;40599;53.132;6.090;2022-09-09T01:43:25;14.10;99.90
54700;DHT22;40599;53.132;6.090;2022-09-09T01:45:54;14.10;99.90
54700;DHT22;40599;53.132;6.090;2022-09-09T01:48:21;14.10;99.90
54700;DHT22;40599;53.132;6.090;2022-09-09T01:50:48;14.10;99.90
54700;DHT22;40599;53.132;6.090;2022-09-09T01:53:15;14.10;99.90
54700;DHT22;40599;53.132;6.090;2022-09-09T01:59:24;14.10;99.90
54700;DHT22;40599;53.132;6.090;2022-09-09T02:02:13;14.10;99.90
54700;DHT22;40599;53.132;6.090;2022-09-09T02:04:49;14.10;99.90
54700;DHT22;40599;53.132;6.090;2022-09-09T02:10:11;14.10;99.90
54700;DHT22;40599;53.132;6.090;2022-09-09T02:12:42;14.10;99.90
54700;DHT22;40599;53.132;6.090;2022-09-09T02:15:22;14.10;99.90
54700;DHT22;40599;53.132;6.090;2022-09-09T02:17:50;14.00;99.90
54700;DHT22;40599;53.132;6.090;2022-09-09T02:20:18;14.00;99.90
54700;DHT22;40599;53.132;6.090;2022-09-09T02:22:46;14.10;99.90
54700;DHT22;40599;53.132;6.090;2022-09-09T02:25:17;14.00;99.90
54700;DHT22;40599;53.132;6.090;2022-09-09T02:27:45;14.00;99.90
54700;DHT22;40599;53.132;6.090;2022-09-09T02:30:12;14.00;99.90
54700;DHT22;40599;53.132;6.090;2022-09-09T02:32:40;14.00;99.90
54700;DHT22;40599;53.132;6.090;2022-09-09T02:35:11;14.00;99.90
54700;DHT22;40599;53.132;6.090;2022-09-09T02:37:40;14.00;99.90
54700;DHT22;40599;53.132;6.090;2022-09-09T02:40:09;14.00;99.90
54700;DHT22;40599;53.132;6.090;2022-09-09T02:42:44;14.00;99.90
54700;DHT22;40599;53.132;6.090;2022-09-09T02:45:12;13.90;99.90
54700;DHT22;40599;53.132;6.090;2022-09-09T02:47:39;13.90;99.90
54700;DHT22;40599;53.132;6.090;2022-09-09T02:58:10;13.80;99.90
54700;DHT22;40599;53.132;6.090;2022-09-09T03:00:38;13.80;99.90
54700;DHT22;40599;53.132;6.090;2022-09-09T03:03:06;13.80;99.90
54700;DHT22;40599;53.132;6.090;2022-09-09T03:05:31;13.80;99.90
54700;DHT22;40599;53.132;6.090;2022-09-09T03:07:58;13.80;99.90
54700;DHT22;40599;53.132;6.090;2022-09-09T03:10:24;13.80;99.90
54700;DHT22;40599;53.132;6.090;2022-09-09T03:12:49;13.80;99.90
54700;DHT22;40599;53.132;6.090;2022-09-09T03:15:16;13.80;99.90
54700;DHT22;40599;53.132;6.090;2022-09-09T03:17:42;13.80;99.90
54700;DHT22;40599;53.132;6.090;2022-09-09T03:20:08;13.80;99.90
54700;DHT22;40599;53.132;6.090;2022-09-09T03:22:34;13.70;99.90
54700;DHT22;40599;53.132;6.090;2022-09-09T03:25:00;13.80;99.90
54700;DHT22;40599;53.132;6.090;2022-09-09T03:27:25;13.70;99.90
54700;DHT22;40599;53.132;6.090;2022-09-09T03:29:51;13.70;99.90
54700;DHT22;40599;53.132;6.090;2022-09-09T03:32:18;13.80;99.90
54700;DHT22;40599;53.132;6.090;2022-09-09T03:34:44;13.80;99.90
54700;DHT22;40599;53.132;6.090;2022-09-09T03:37:10;13.80;99.90
54700;DHT22;40599;53.132;6.090;2022-09-09T03:39:36;13.80;99.90
54700;DHT22;40599;53.132;6.090;2022-09-09T03:42:01;13.80;99.90
54700;DHT22;40599;53.132;6.090;2022-09-09T03:44:30;13.80;99.90
54700;DHT22;40599;53.132;6.090;2022-09-09T03:46:56;13.90;99.90
54700;DHT22;40599;53.132;6.090;2022-09-09T03:49:21;13.90;99.90
54700;DHT22;40599;53.132;6.090;2022-09-09T03:51:48;13.90;99.90
54700;DHT22;40599;53.132;6.090;2022-09-09T03:54:14;13.90;99.90
54700;DHT22;40599;53.132;6.090;2022-09-09T03:56:39;13.90;99.90
54700;DHT22;40599;53.132;6.090;2022-09-09T03:59:07;13.90;99.90
54700;DHT22;40599;53.132;6.090;2022-09-09T04:01:34;13.90;99.90
54700;DHT22;40599;53.132;6.090;2022-09-09T04:03:59;13.90;99.90
54700;DHT22;40599;53.132;6.090;2022-09-09T04:06:25;13.90;99.90
54700;DHT22;40599;53.132;6.090;2022-09-09T04:08:51;13.90;99.90
54700;DHT22;40599;53.132;6.090;2022-09-09T04:11:18;13.90;99.90
54700;DHT22;40599;53.132;6.090;2022-09-09T04:13:43;13.90;99.90
54700;DHT22;40599;53.132;6.090;2022-09-09T04:16:11;13.90;99.90
54700;DHT22;40599;53.132;6.090;2022-09-09T04:18:38;13.90;99.90
54700;DHT22;40599;53.132;6.090;2022-09-09T04:21:04;13.90;99.90
54700;DHT22;40599;53.132;6.090;2022-09-09T04:23:32;13.90;99.90
54700;DHT22;40599;53.132;6.090;2022-09-09T04:25:59;13.90;99.90
54700;DHT22;40599;53.132;6.090;2022-09-09T04:28:28;13.90;99.90
54700;DHT22;40599;53.132;6.090;2022-09-09T04:30:54;13.90;99.90
54700;DHT22;40599;53.132;6.090;2022-09-09T04:33:20;13.90;99.90
54700;DHT22;40599;53.132;6.090;2022-09-09T04:35:48;13.90;99.90
54700;DHT22;40599;53.132;6.090;2022-09-09T04:38:14;12.70;99.90
54700;DHT22;40599;53.132;6.090;2022-09-09T04:40:47;13.90;99.90
54700;DHT22;40599;53.132;6.090;2022-09-09T04:43:13;13.90;99.90
54700;DHT22;40599;53.132;6.090;2022-09-09T04:45:40;13.90;99.90
54700;DHT22;40599;53.132;6.090;2022-09-09T04:48:07;13.90;99.90
54700;DHT22;40599;53.132;6.090;2022-09-09T04:50:33;13.90;99.90
54700;DHT22;40599;53.132;6.090;2022-09-09T04:53:03;14.00;99.90
54700;DHT22;40599;53.132;6.090;2022-09-09T04:55:31;14.00;99.90
54700;DHT22;40599;53.132;6.090;2022-09-09T04:57:57;14.00;99.90
54700;DHT22;40599;53.132;6.090;2022-09-09T05:00:25;14.00;99.90
54700;DHT22;40599;53.132;6.090;2022-09-09T05:02:51;14.00;99.90
54700;DHT22;40599;53.132;6.090;2022-09-09T05:05:17;14.00;99.90
54700;DHT22;40599;53.132;6.090;2022-09-09T05:07:43;14.00;99.90
54700;DHT22;40599;53.132;6.090;2022-09-09T05:10:09;14.00;99.90
54700;DHT22;40599;53.132;6.090;2022-09-09T05:12:36;14.10;99.90
54700;DHT22;40599;53.132;6.090;2022-09-09T05:15:01;14.00;99.90
54700;DHT22;40599;53.132;6.090;2022-09-09T05:17:27;14.10;99.90
54700;DHT22;40599;53.132;6.090;2022-09-09T05:19:53;14.00;99.90
54700;DHT22;40599;53.132;6.090;2022-09-09T05:22:21;14.10;99.90
54700;DHT22;40599;53.132;6.090;2022-09-09T05:24:51;14.10;99.90
54700;DHT22;40599;53.132;6.090;2022-09-09T05:27:18;14.00;99.90
54700;DHT22;40599;53.132;6.090;2022-09-09T05:29:45;14.00;99.90
54700;DHT22;40599;53.132;6.090;2022-09-09T05:32:11;14.10;99.90
54700;DHT22;40599;53.132;6.090;2022-09-09T05:34:39;14.10;99.90
54700;DHT22;40599;53.132;6.090;2022-09-09T05:37:05;14.10;99.90
54700;DHT22;40599;53.132;6.090;2022-09-09T05:39:30;14.10;99.90
54700;DHT22;40599;53.132;6.090;2022-09-09T05:41:58;14.10;99.90
54700;DHT22;40599;53.132;6.090;2022-09-09T05:44:24;14.10;99.90
54700;DHT22;40599;53.132;6.090;2022-09-09T05:46:53;14.10;99.90
54700;DHT22;40599;53.132;6.090;2022-09-09T05:49:19;14.10;99.90
54700;DHT22;40599;53.132;6.090;2022-09-09T05:51:46;14.10;99.90
54700;DHT22;40599;53.132;6.090;2022-09-09T05:54:12;14.10;99.90
54700;DHT22;40599;53.132;6.090;2022-09-09T05:56:40;14.20;99.90
54700;DHT22;40599;53.132;6.090;2022-09-09T05:59:06;14.10;99.90
54700;DHT22;40599;53.132;6.090;2022-09-09T06:01:34;14.10;99.90
54700;DHT22;40599;53.132;6.090;2022-09-09T06:04:00;14.20;99.90
54700;DHT22;40599;53.132;6.090;2022-09-09T06:06:30;14.20;99.90
54700;DHT22;40599;53.132;6.090;2022-09-09T06:08:57;14.20;99.90
54700;DHT22;40599;53.132;6.090;2022-09-09T06:11:26;14.20;99.90
54700;DHT22;40599;53.132;6.090;2022-09-09T06:13:52;14.20;99.90
54700;DHT22;40599;53.132;6.090;2022-09-09T06:16:22;14.20;99.90
54700;DHT22;40599;53.132;6.090;2022-09-09T06:18:52;14.30;99.90
54700;DHT22;40599;53.132;6.090;2022-09-09T06:21:23;14.30;99.90
54700;DHT22;40599;53.132;6.090;2022-09-09T06:23:49;14.40;99.90
54700;DHT22;40599;53.132;6.090;2022-09-09T06:26:22;14.40;99.90
54700;DHT22;40599;53.132;6.090;2022-09-09T06:28:49;14.40;99.90
54700;DHT22;40599;53.132;6.090;2022-09-09T06:31:18;14.40;99.90
54700;DHT22;40599;53.132;6.090;2022-09-09T06:33:47;14.50;99.90
54700;DHT22;40599;53.132;6.090;2022-09-09T06:36:20;14.50;99.90
54700;DHT22;40599;53.132;6.090;2022-09-09T06:38:46;14.50;99.90
54700;DHT22;40599;53.132;6.090;2022-09-09T06:41:14;14.60;99.90
54700;DHT22;40599;53.132;6.090;2022-09-09T06:43:41;14.60;99.90
54700;DHT22;40599;53.132;6.090;2022-09-09T06:46:10;14.50;99.90
54700;DHT22;40599;53.132;6.090;2022-09-09T06:48:36;14.50;99.90
54700;DHT22;40599;53.132;6.090;2022-09-09T06:51:10;14.50;99.90
54700;DHT22;40599;53.132;6.090;2022-09-09T06:53:37;14.50;99.90
54700;DHT22;40599;53.132;6.090;2022-09-09T06:58:39;14.60;99.90
54700;DHT22;40599;53.132;6.090;2022-09-09T07:01:22;14.60;99.90
54700;DHT22;40599;53.132;6.090;2022-09-09T07:03:49;14.60;99.90
54700;DHT22;40599;53.132;6.090;2022-09-09T07:06:20;14.60;99.90
54700;DHT22;40599;53.132;6.090;2022-09-09T07:08:54;14.60;99.90
54700;DHT22;40599;53.132;6.090;2022-09-09T07:11:21;14.70;99.90
54700;DHT22;40599;53.132;6.090;2022-09-09T07:13:48;14.70;99.90
54700;DHT22;40599;53.132;6.090;2022-09-09T07:16:19;14.70;99.90
54700;DHT22;40599;53.132;6.090;2022-09-09T07:18:46;14.80;99.90
54700;DHT22;40599;53.132;6.090;2022-09-09T07:21:13;14.90;99.90
54700;DHT22;40599;53.132;6.090;2022-09-09T07:23:40;14.80;99.90
54700;DHT22;40599;53.132;6.090;2022-09-09T07:26:10;14.90;99.90
54700;DHT22;40599;53.132;6.090;2022-09-09T07:28:37;14.90;99.90
54700;DHT22;40599;53.132;6.090;2022-09-09T07:31:03;15.00;99.90
54700;DHT22;40599;53.132;6.090;2022-09-09T07:33:31;15.10;99.90
54700;DHT22;40599;53.132;6.090;2022-09-09T07:36:05;15.10;99.90
54700;DHT22;40599;53.132;6.090;2022-09-09T07:38:31;15.20;99.90
54700;DHT22;40599;53.132;6.090;2022-09-09T07:41:05;15.30;99.90
54700;DHT22;40599;53.132;6.090;2022-09-09T07:43:32;15.30;99.90
54700;DHT22;40599;53.132;6.090;2022-09-09T07:45:59;15.40;99.90
54700;DHT22;40599;53.132;6.090;2022-09-09T07:48:27;15.60;99.90
54700;DHT22;40599;53.132;6.090;2022-09-09T07:51:02;15.90;99.90
54700;DHT22;40599;53.132;6.090;2022-09-09T07:53:28;16.20;99.90
54700;DHT22;40599;53.132;6.090;2022-09-09T12:24:13;19.20;99.90
54700;DHT22;40599;53.132;6.090;2022-09-09T12:26:51;19.20;99.90
54700;DHT22;40599;53.132;6.090;2022-09-09T12:32:11;19.20;99.90
54700;DHT22;40599;53.132;6.090;2022-09-09T12:34:40;19.20;99.90
54700;DHT22;40599;53.132;6.090;2022-09-09T12:37:25;19.30;99.90
54700;DHT22;40599;53.132;6.090;2022-09-09T12:40:00;19.40;99.90
54700;DHT22;40599;53.132;6.090;2022-09-09T12:42:28;19.30;99.90
54700;DHT22;40599;53.132;6.090;2022-09-09T12:48:00;19.40;99.90
54700;DHT22;40599;53.132;6.090;2022-09-09T12:52:59;19.50;99.90
54700;DHT22;40599;53.132;6.090;2022-09-09T12:55:31;19.50;99.90
54700;DHT22;40599;53.132;6.090;2022-09-09T12:58:00;19.70;99.90
54700;DHT22;40599;53.132;6.090;2022-09-09T13:00:30;19.60;99.90
54700;DHT22;40599;53.132;6.090;2022-09-09T13:03:17;19.70;99.90
54700;DHT22;40599;53.132;6.090;2022-09-09T13:05:43;19.80;99.90
54700;DHT22;40599;53.132;6.090;2022-09-09T13:08:11;19.90;99.90
54700;DHT22;40599;53.132;6.090;2022-09-09T13:10:44;19.80;99.90
54700;DHT22;40599;53.132;6.090;2022-09-09T13:13:23;19.60;99.90
54700;DHT22;40599;53.132;6.090;2022-09-09T13:15:56;19.50;99.90
54700;DHT22;40599;53.132;6.090;2022-09-09T13:18:28;19.50;99.90
54700;DHT22;40599;53.132;6.090;2022-09-09T13:20:55;19.40;99.90
54700;DHT22;40599;53.132;6.090;2022-09-09T13:23:27;19.30;99.90
54700;DHT22;40599;53.132;6.090;2022-09-09T13:54:00;18.70;99.90
54700;DHT22;40599;53.132;6.090;2022-09-09T13:56:26;18.90;99.90
54700;DHT22;40599;53.132;6.090;2022-09-09T13:58:52;19.30;99.90
54700;DHT22;40599;53.132;6.090;2022-09-09T14:01:18;19.40;99.90
54700;DHT22;40599;53.132;6.090;2022-09-09T14:03:44;19.40;99.90
54700;DHT22;40599;53.132;6.090;2022-09-09T14:06:10;19.50;99.90
54700;DHT22;40599;53.132;6.090;2022-09-09T14:08:36;19.60;99.90
54700;DHT22;40599;53.132;6.090;2022-09-09T14:11:06;19.70;99.90
54700;DHT22;40599;53.132;6.090;2022-09-09T14:13:33;19.90;99.90
54700;DHT22;40599;53.132;6.090;2022-09-09T14:15:58;20.00;99.90
54700;DHT22;40599;53.132;6.090;2022-09-09T14:18:24;20.00;99.90
54700;DHT22;40599;53.132;6.090;2022-09-09T14:20:51;20.00;99.90
54700;DHT22;40599;53.132;6.090;2022-09-09T14:23:17;19.90;99.90
54700;DHT22;40599;53.132;6.090;2022-09-09T14:25:43;20.00;99.90
54700;DHT22;40599;53.132;6.090;2022-09-09T14:28:13;19.80;99.90
54700;DHT22;40599;53.132;6.090;2022-09-09T14:30:40;19.70;99.90
54700;DHT22;40599;53.132;6.090;2022-09-09T14:33:13;19.60;99.90
54700;DHT22;40599;53.132;6.090;2022-09-09T14:35:39;19.70;99.90
54700;DHT22;40599;53.132;6.090;2022-09-09T14:38:07;19.80;99.90
54700;DHT22;40599;53.132;6.090;2022-09-09T14:40:34;19.90;99.90
54700;DHT22;40599;53.132;6.090;2022-09-09T14:43:00;19.90;99.90
54700;DHT22;40599;53.132;6.090;2022-09-09T14:45:26;20.00;99.90
54700;DHT22;40599;53.132;6.090;2022-09-09T14:47:52;19.90;99.90
54700;DHT22;40599;53.132;6.090;2022-09-09T14:50:19;19.90;99.90
54700;DHT22;40599;53.132;6.090;2022-09-09T14:52:45;19.80;99.90
54700;DHT22;40599;53.132;6.090;2022-09-09T14:55:12;19.70;99.90
54700;DHT22;40599;53.132;6.090;2022-09-09T14:57:38;19.50;99.90
54700;DHT22;40599;53.132;6.090;2022-09-09T15:00:07;19.30;99.90
54700;DHT22;40599;53.132;6.090;2022-09-09T15:02:33;19.20;99.90
54700;DHT22;40599;53.132;6.090;2022-09-09T15:04:59;19.10;99.90
54700;DHT22;40599;53.132;6.090;2022-09-09T15:07:25;19.00;99.90
54700;DHT22;40599;53.132;6.090;2022-09-09T15:09:52;18.90;99.90
54700;DHT22;40599;53.132;6.090;2022-09-09T15:12:18;19.00;99.90
54700;DHT22;40599;53.132;6.090;2022-09-09T15:14:47;19.00;99.90
54700;DHT22;40599;53.132;6.090;2022-09-09T15:17:13;19.00;99.90
54700;DHT22;40599;53.132;6.090;2022-09-09T15:19:39;19.00;99.90
54700;DHT22;40599;53.132;6.090;2022-09-09T15:22:05;18.80;99.90
54700;DHT22;40599;53.132;6.090;2022-09-09T15:24:33;18.70;99.90
54700;DHT22;40599;53.132;6.090;2022-09-09T15:26:59;18.50;99.90
54700;DHT22;40599;53.132;6.090;2022-09-09T15:29:25;18.00;99.90
54700;DHT22;40599;53.132;6.090;2022-09-09T15:31:51;17.60;99.90
54700;DHT22;40599;53.132;6.090;2022-09-09T15:34:18;17.50;99.90
54700;DHT22;40599;53.132;6.090;2022-09-09T15:36:45;17.40;99.90
54700;DHT22;40599;53.132;6.090;2022-09-09T15:39:15;17.30;99.90
54700;DHT22;40599;53.132;6.090;2022-09-09T16:40:50;17.50;99.90
54700;DHT22;40599;53.132;6.090;2022-09-09T16:43:16;17.30;99.90
54700;DHT22;40599;53.132;6.090;2022-09-09T16:45:43;17.50;99.90
54700;DHT22;40599;53.132;6.090;2022-09-09T16:48:09;17.30;99.90
54700;DHT22;40599;53.132;6.090;2022-09-09T16:50:35;17.20;99.90
54700;DHT22;40599;53.132;6.090;2022-09-09T16:53:01;17.20;99.90
54700;DHT22;40599;53.132;6.090;2022-09-09T16:55:31;17.40;99.90
54700;DHT22;40599;53.132;6.090;2022-09-09T16:57:57;17.20;99.90
54700;DHT22;40599;53.132;6.090;2022-09-09T17:00:23;17.00;99.90
54700;DHT22;40599;53.132;6.090;2022-09-09T17:02:49;17.20;99.90
54700;DHT22;40599;53.132;6.090;2022-09-09T17:05:15;17.30;99.90
54700;DHT22;40599;53.132;6.090;2022-09-09T17:07:40;17.30;99.90
54700;DHT22;40599;53.132;6.090;2022-09-09T17:12:33;17.40;99.90
54700;DHT22;40599;53.132;6.090;2022-09-09T17:15:01;17.20;99.90
54700;DHT22;40599;53.132;6.090;2022-09-09T17:17:28;17.20;99.90
54700;DHT22;40599;53.132;6.090;2022-09-09T17:19:54;17.10;99.90
54700;DHT22;40599;53.132;6.090;2022-09-09T17:22:20;17.00;99.90
54700;DHT22;40599;53.132;6.090;2022-09-09T17:24:46;17.10;99.90
54700;DHT22;40599;53.132;6.090;2022-09-09T17:27:13;17.20;99.90
54700;DHT22;40599;53.132;6.090;2022-09-09T17:29:39;17.10;99.90
54700;DHT22;40599;53.132;6.090;2022-09-09T17:32:05;17.10;99.90
54700;DHT22;40599;53.132;6.090;2022-09-09T17:34:33;17.10;99.90
54700;DHT22;40599;53.132;6.090;2022-09-09T17:36:59;17.00;99.90
54700;DHT22;40599;53.132;6.090;2022-09-09T17:39:25;17.00;99.90
54700;DHT22;40599;53.132;6.090;2022-09-09T17:41:51;17.00;99.90
54700;DHT22;40599;53.132;6.090;2022-09-09T17:44:18;17.00;99.90
54700;DHT22;40599;53.132;6.090;2022-09-09T17:46:45;17.00;99.90
54700;DHT22;40599;53.132;6.090;2022-09-09T17:49:15;17.00;99.90
54700;DHT22;40599;53.132;6.090;2022-09-09T17:51:43;17.10;99.90
54700;DHT22;40599;53.132;6.090;2022-09-09T17:54:17;17.00;99.90
54700;DHT22;40599;53.132;6.090;2022-09-09T17:56:44;16.90;99.90
54700;DHT22;40599;53.132;6.090;2022-09-09T17:59:11;16.80;99.90
54700;DHT22;40599;53.132;6.090;2022-09-09T18:01:39;16.70;99.90
54700;DHT22;40599;53.132;6.090;2022-09-09T18:04:07;16.80;99.90
54700;DHT22;40599;53.132;6.090;2022-09-09T18:06:36;16.70;99.90
54700;DHT22;40599;53.132;6.090;2022-09-09T18:09:05;16.70;99.90
54700;DHT22;40599;53.132;6.090;2022-09-09T18:11:35;16.70;99.90
54700;DHT22;40599;53.132;6.090;2022-09-09T18:14:04;16.80;99.90
54700;DHT22;40599;53.132;6.090;2022-09-09T18:16:32;16.50;99.90
54700;DHT22;40599;53.132;6.090;2022-09-09T18:21:34;16.70;99.90
54700;DHT22;40599;53.132;6.090;2022-09-09T18:24:03;16.70;99.90
54700;DHT22;40599;53.132;6.090;2022-09-09T18:26:30;16.80;99.90
54700;DHT22;40599;53.132;6.090;2022-09-09T18:28:59;16.80;99.90
54700;DHT22;40599;53.132;6.090;2022-09-09T18:31:27;16.60;99.90
54700;DHT22;40599;53.132;6.090;2022-09-09T18:33:55;16.60;99.90
54700;DHT22;40599;53.132;6.090;2022-09-09T18:36:30;16.60;99.90
54700;DHT22;40599;53.132;6.090;2022-09-09T18:38:57;16.60;99.90
54700;DHT22;40599;53.132;6.090;2022-09-09T18:41:28;16.70;99.90
54700;DHT22;40599;53.132;6.090;2022-09-09T18:43:58;16.60;99.90
54700;DHT22;40599;53.132;6.090;2022-09-09T18:46:26;16.50;99.90
54700;DHT22;40599;53.132;6.090;2022-09-09T18:48:53;16.70;99.90
54700;DHT22;40599;53.132;6.090;2022-09-09T18:51:24;16.60;99.90
54700;DHT22;40599;53.132;6.090;2022-09-09T18:56:17;16.60;99.90
54700;DHT22;40599;53.132;6.090;2022-09-09T18:58:43;16.60;99.90
54700;DHT22;40599;53.132;6.090;2022-09-09T19:01:11;16.60;99.90
54700;DHT22;40599;53.132;6.090;2022-09-09T19:03:38;16.40;99.90
54700;DHT22;40599;53.132;6.090;2022-09-09T21:23:54;15.10;99.90
54700;DHT22;40599;53.132;6.090;2022-09-09T21:26:20;15.30;99.90
54700;DHT22;40599;53.132;6.090;2022-09-09T21:28:46;15.20;99.90
54700;DHT22;40599;53.132;6.090;2022-09-09T21:31:17;15.20;99.90
54700;DHT22;40599;53.132;6.090;2022-09-09T21:33:43;15.10;99.90
54700;DHT22;40599;53.132;6.090;2022-09-09T21:36:11;15.10;99.90
54700;DHT22;40599;53.132;6.090;2022-09-09T21:38:37;15.10;99.90
54700;DHT22;40599;53.132;6.090;2022-09-09T21:41:07;15.00;99.90
54700;DHT22;40599;53.132;6.090;2022-09-09T21:43:33;15.00;99.90
54700;DHT22;40599;53.132;6.090;2022-09-09T21:46:00;15.00;99.90
54700;DHT22;40599;53.132;6.090;2022-09-09T21:48:32;15.00;99.90
54700;DHT22;40599;53.132;6.090;2022-09-09T21:51:06;15.00;99.90
54700;DHT22;40599;53.132;6.090;2022-09-09T21:53:32;15.00;99.90
54700;DHT22;40599;53.132;6.090;2022-09-09T21:56:07;15.00;99.90
54700;DHT22;40599;53.132;6.090;2022-09-09T21:58:34;14.90;99.90
54700;DHT22;40599;53.132;6.090;2022-09-09T22:01:00;14.90;99.90
54700;DHT22;40599;53.132;6.090;2022-09-09T22:03:26;14.90;99.90
54700;DHT22;40599;53.132;6.090;2022-09-09T22:05:52;14.90;99.90
54700;DHT22;40599;53.132;6.090;2022-09-09T22:08:18;14.90;99.90
54700;DHT22;40599;53.132;6.090;2022-09-09T22:10:45;14.80;99.90
54700;DHT22;40599;53.132;6.090;2022-09-09T22:13:12;14.80;99.90
54700;DHT22;40599;53.132;6.090;2022-09-09T22:15:45;14.80;99.90
54700;DHT22;40599;53.132;6.090;2022-09-09T22:18:11;14.70;99.90
54700;DHT22;40599;53.132;6.090;2022-09-09T22:20:43;14.70;99.90
54700;DHT22;40599;53.132;6.090;2022-09-09T22:23:10;14.60;99.90
54700;DHT22;40599;53.132;6.090;2022-09-09T22:25:37;14.70;99.90
54700;DHT22;40599;53.132;6.090;2022-09-09T22:28:04;14.70;99.90
54700;DHT22;40599;53.132;6.090;2022-09-09T22:30:30;14.60;99.90
54700;DHT22;40599;53.132;6.090;2022-09-09T22:32:56;14.60;99.90
54700;DHT22;40599;53.132;6.090;2022-09-09T22:35:23;14.60;99.90
54700;DHT22;40599;53.132;6.090;2022-09-09T22:37:49;14.60;99.90
54700;DHT22;40599;53.132;6.090;2022-09-09T22:40:14;14.60;99.90
54700;DHT22;40599;53.132;6.090;2022-09-09T22:42:41;14.50;99.90
54700;DHT22;40599;53.132;6.090;2022-09-09T22:45:10;14.50;99.90
54700;DHT22;40599;53.132;6.090;2022-09-09T22:47:37;14.50;99.90
54700;DHT22;40599;53.132;6.090;2022-09-09T22:50:07;14.50;99.90
54700;DHT22;40599;53.132;6.090;2022-09-09T22:52:33;14.50;99.90
54700;DHT22;40599;53.132;6.090;2022-09-09T22:54:59;14.50;99.90
54700;DHT22;40599;53.132;6.090;2022-09-09T22:57:25;14.50;99.90
54700;DHT22;40599;53.132;6.090;2022-09-09T22:59:51;14.40;99.90
54700;DHT22;40599;53.132;6.090;2022-09-09T23:02:16;14.40;99.90
54700;DHT22;40599;53.132;6.090;2022-09-09T23:04:45;14.40;99.90
54700;DHT22;40599;53.132;6.090;2022-09-09T23:07:11;14.40;99.90
54700;DHT22;40599;53.132;6.090;2022-09-09T23:09:37;14.50;99.90
54700;DHT22;40599;53.132;6.090;2022-09-09T23:12:03;14.40;99.90
54700;DHT22;40599;53.132;6.090;2022-09-09T23:14:30;14.40;99.90
54700;DHT22;40599;53.132;6.090;2022-09-09T23:16:58;14.50;99.90
54700;DHT22;40599;53.132;6.090;2022-09-09T23:19:24;14.50;99.90
54700;DHT22;40599;53.132;6.090;2022-09-09T23:21:49;14.50;99.90
54700;DHT22;40599;53.132;6.090;2022-09-09T23:24:16;14.50;99.90
54700;DHT22;40599;53.132;6.090;2022-09-09T23:26:42;14.50;99.90
54700;DHT22;40599;53.132;6.090;2022-09-09T23:29:11;14.50;99.90
54700;DHT22;40599;53.132;6.090;2022-09-09T23:31:39;14.50;99.90
54700;DHT22;40599;53.132;6.090;2022-09-09T23:34:05;14.50;99.90
54700;DHT22;40599;53.132;6.090;2022-09-09T23:36:31;14.50;99.90
54700;DHT22;40599;53.132;6.090;2022-09-09T23:38:58;14.40;99.90
54700;DHT22;40599;53.132;6.090;2022-09-09T23:41:26;14.40;99.90
54700;DHT22;40599;53.132;6.090;2022-09-09T23:43:53;14.50;99.90
54700;DHT22;40599;53.132;6.090;2022-09-09T23:46:21;14.40;99.90
54700;DHT22;40599;53.132;6.090;2022-09-09T23:48:47;14.50;99.90
54700;DHT22;40599;53.132;6.090;2022-09-09T23:51:16;14.50;99.90
54700;DHT22;40599;53.132;6.090;2022-09-09T23:53:47;14.50;99.90
54700;DHT22;40599;53.132;6.090;2022-09-09T23:56:20;14.50;99.90
54700;DHT22;40599;53.132;6.090;2022-09-09T23:58:47;14.50;99.90
